sensor_id;sensor_type;location;lat;lon;timestamp;temperature;humidity
12655;DHT22;6392;44.644;11.448;2023-07-30T00:01:39;27.40;99.90
12655;DHT22;6392;44.644;11.448;2023-07-30T00:04:06;27.40;99.90
12655;DHT22;6392;44.644;11.448;2023-07-30T00:06:33;27.50;99.90
12655;DHT22;6392;44.644;11.448;2023-07-30T00:09:00;27.50;99.90
12655;DHT22;6392;44.644;11.448;2023-07-30T00:11:29;27.50;99.90
12655;DHT22;6392;44.644;11.448;2023-07-30T00:13:56;27.50;99.90
12655;DHT22;6392;44.644;11.448;2023-07-30T00:16:25;27.50;99.90
12655;DHT22;6392;44.644;11.448;2023-07-30T00:18:52;27.50;99.90
12655;DHT22;6392;44.644;11.448;2023-07-30T00:21:19;27.50;99.90
12655;DHT22;6392;44.644;11.448;2023-07-30T00:23:46;27.50;99.90
12655;DHT22;6392;44.644;11.448;2023-07-30T00:26:13;27.60;99.90
12655;DHT22;6392;44.644;11.448;2023-07-30T00:28:42;27.70;99.90
12655;DHT22;6392;44.644;11.448;2023-07-30T00:31:09;27.70;99.90
12655;DHT22;6392;44.644;11.448;2023-07-30T00:33:36;27.80;99.90
12655;DHT22;6392;44.644;11.448;2023-07-30T00:36:03;27.80;99.90
12655;DHT22;6392;44.644;11.448;2023-07-30T00:38:30;27.80;99.90
12655;DHT22;6392;44.644;11.448;2023-07-30T00:40:57;27.80;99.90
12655;DHT22;6392;44.644;11.448;2023-07-30T00:43:24;27.80;99.90
12655;DHT22;6392;44.644;11.448;2023-07-30T00:45:52;27.80;99.90
12655;DHT22;6392;44.644;11.448;2023-07-30T00:48:19;27.70;99.90
12655;DHT22;6392;44.644;11.448;2023-07-30T00:50:47;27.60;99.90
12655;DHT22;6392;44.644;11.448;2023-07-30T00:53:15;27.50;99.90
12655;DHT22;6392;44.644;11.448;2023-07-30T00:55:43;27.50;99.90
12655;DHT22;6392;44.644;11.448;2023-07-30T00:58:11;27.50;99.90
12655;DHT22;6392;44.644;11.448;2023-07-30T01:00:39;27.50;99.90
12655;DHT22;6392;44.644;11.448;2023-07-30T01:03:07;27.50;99.90
12655;DHT22;6392;44.644;11.448;2023-07-30T01:05:34;27.60;99.90
12655;DHT22;6392;44.644;11.448;2023-07-30T01:08:01;27.60;99.90
12655;DHT22;6392;44.644;11.448;2023-07-30T01:10:30;27.60;99.90
12655;DHT22;6392;44.644;11.448;2023-07-30T01:13:00;27.60;99.90
12655;DHT22;6392;44.644;11.448;2023-07-30T01:15:28;27.60;99.90
12655;DHT22;6392;44.644;11.448;2023-07-30T01:17:55;27.50;99.90
12655;DHT22;6392;44.644;11.448;2023-07-30T01:20:24;27.40;99.90
12655;DHT22;6392;44.644;11.448;2023-07-30T01:22:52;27.30;99.90
12655;DHT22;6392;44.644;11.448;2023-07-30T01:25:21;27.30;99.90
12655;DHT22;6392;44.644;11.448;2023-07-30T01:27:52;27.20;99.90
12655;DHT22;6392;44.644;11.448;2023-07-30T01:30:24;27.20;99.90
12655;DHT22;6392;44.644;11.448;2023-07-30T01:32:52;27.20;99.90
12655;DHT22;6392;44.644;11.448;2023-07-30T01:35:21;27.10;99.90
12655;DHT22;6392;44.644;11.448;2023-07-30T01:37:49;27.10;99.90
12655;DHT22;6392;44.644;11.448;2023-07-30T01:40:19;27.10;99.90
12655;DHT22;6392;44.644;11.448;2023-07-30T01:42:46;27.10;99.90
12655;DHT22;6392;44.644;11.448;2023-07-30T01:45:13;27.10;99.90
12655;DHT22;6392;44.644;11.448;2023-07-30T01:47:40;27.20;99.90
12655;DHT22;6392;44.644;11.448;2023-07-30T01:50:07;27.20;99.90
12655;DHT22;6392;44.644;11.448;2023-07-30T01:52:35;27.20;99.90
12655;DHT22;6392;44.644;11.448;2023-07-30T01:55:02;27.20;99.90
12655;DHT22;6392;44.644;11.448;2023-07-30T01:57:30;27.20;99.90
12655;DHT22;6392;44.644;11.448;2023-07-30T02:00:12;27.20;99.90
12655;DHT22;6392;44.644;11.448;2023-07-30T02:02:39;27.20;99.90
12655;DHT22;6392;44.644;11.448;2023-07-30T02:05:06;27.30;99.90
12655;DHT22;6392;44.644;11.448;2023-07-30T02:07:33;27.30;99.90
12655;DHT22;6392;44.644;11.448;2023-07-30T02:10:00;27.30;99.90
12655;DHT22;6392;44.644;11.448;2023-07-30T02:12:27;27.30;99.90
12655;DHT22;6392;44.644;11.448;2023-07-30T02:14:56;27.30;99.90
12655;DHT22;6392;44.644;11.448;2023-07-30T02:17:23;27.30;99.90
12655;DHT22;6392;44.644;11.448;2023-07-30T02:19:50;27.30;99.90
12655;DHT22;6392;44.644;11.448;2023-07-30T02:22:17;27.30;99.90
12655;DHT22;6392;44.644;11.448;2023-07-30T02:24:43;27.20;99.90
12655;DHT22;6392;44.644;11.448;2023-07-30T02:27:10;27.20;99.90
12655;DHT22;6392;44.644;11.448;2023-07-30T02:29:37;27.20;99.90
12655;DHT22;6392;44.644;11.448;2023-07-30T02:32:07;27.20;99.90
12655;DHT22;6392;44.644;11.448;2023-07-30T02:34:34;27.20;99.90
12655;DHT22;6392;44.644;11.448;2023-07-30T02:37:01;27.20;99.90
12655;DHT22;6392;44.644;11.448;2023-07-30T02:39:28;27.20;99.90
12655;DHT22;6392;44.644;11.448;2023-07-30T02:41:55;27.20;99.90
12655;DHT22;6392;44.644;11.448;2023-07-30T02:44:22;27.20;99.90
12655;DHT22;6392;44.644;11.448;2023-07-30T02:46:49;27.20;99.90
12655;DHT22;6392;44.644;11.448;2023-07-30T02:49:17;27.20;99.90
12655;DHT22;6392;44.644;11.448;2023-07-30T02:51:44;27.10;99.90
12655;DHT22;6392;44.644;11.448;2023-07-30T02:54:14;27.00;99.90
12655;DHT22;6392;44.644;11.448;2023-07-30T02:56:42;26.90;99.90
12655;DHT22;6392;44.644;11.448;2023-07-30T02:59:09;26.90;99.90
12655;DHT22;6392;44.644;11.448;2023-07-30T03:01:36;26.80;99.90
12655;DHT22;6392;44.644;11.448;2023-07-30T03:04:04;26.80;99.90
12655;DHT22;6392;44.644;11.448;2023-07-30T03:06:32;26.80;99.90
12655;DHT22;6392;44.644;11.448;2023-07-30T03:08:59;26.70;99.90
12655;DHT22;6392;44.644;11.448;2023-07-30T03:11:26;26.70;99.90
12655;DHT22;6392;44.644;11.448;2023-07-30T03:13:53;26.70;99.90
12655;DHT22;6392;44.644;11.448;2023-07-30T03:16:20;26.60;99.90
12655;DHT22;6392;44.644;11.448;2023-07-30T03:18:47;26.60;99.90
12655;DHT22;6392;44.644;11.448;2023-07-30T03:21:14;26.50;99.90
12655;DHT22;6392;44.644;11.448;2023-07-30T03:23:42;26.50;99.90
12655;DHT22;6392;44.644;11.448;2023-07-30T03:26:10;26.40;99.90
12655;DHT22;6392;44.644;11.448;2023-07-30T03:28:37;26.30;99.90
12655;DHT22;6392;44.644;11.448;2023-07-30T03:31:04;26.30;99.90
12655;DHT22;6392;44.644;11.448;2023-07-30T03:33:31;26.20;99.90
12655;DHT22;6392;44.644;11.448;2023-07-30T03:35:59;26.10;99.90
12655;DHT22;6392;44.644;11.448;2023-07-30T03:38:26;26.00;99.90
12655;DHT22;6392;44.644;11.448;2023-07-30T03:40:54;25.90;99.90
12655;DHT22;6392;44.644;11.448;2023-07-30T03:43:21;25.90;99.90
12655;DHT22;6392;44.644;11.448;2023-07-30T03:45:48;25.80;99.90
12655;DHT22;6392;44.644;11.448;2023-07-30T03:48:15;25.80;99.90
12655;DHT22;6392;44.644;11.448;2023-07-30T03:50:42;25.80;99.90
12655;DHT22;6392;44.644;11.448;2023-07-30T03:53:09;25.70;99.90
12655;DHT22;6392;44.644;11.448;2023-07-30T03:55:37;25.60;99.90
12655;DHT22;6392;44.644;11.448;2023-07-30T03:58:05;25.50;99.90
12655;DHT22;6392;44.644;11.448;2023-07-30T04:00:32;25.40;99.90
12655;DHT22;6392;44.644;11.448;2023-07-30T04:02:59;25.30;99.90
12655;DHT22;6392;44.644;11.448;2023-07-30T04:05:26;25.20;99.90
12655;DHT22;6392;44.644;11.448;2023-07-30T04:07:54;25.20;99.90
12655;DHT22;6392;44.644;11.448;2023-07-30T04:10:21;25.10;99.90
12655;DHT22;6392;44.644;11.448;2023-07-30T04:12:48;25.10;99.90
12655;DHT22;6392;44.644;11.448;2023-07-30T04:15:16;25.00;99.90
12655;DHT22;6392;44.644;11.448;2023-07-30T04:17:43;25.00;99.90
12655;DHT22;6392;44.644;11.448;2023-07-30T04:20:11;25.00;99.90
12655;DHT22;6392;44.644;11.448;2023-07-30T04:22:38;25.00;99.90
12655;DHT22;6392;44.644;11.448;2023-07-30T04:25:08;25.10;99.90
12655;DHT22;6392;44.644;11.448;2023-07-30T04:27:36;25.10;99.90
12655;DHT22;6392;44.644;11.448;2023-07-30T04:30:04;25.20;99.90
12655;DHT22;6392;44.644;11.448;2023-07-30T04:32:33;25.20;99.90
12655;DHT22;6392;44.644;11.448;2023-07-30T04:35:00;25.30;99.90
12655;DHT22;6392;44.644;11.448;2023-07-30T04:37:28;25.30;99.90
12655;DHT22;6392;44.644;11.448;2023-07-30T04:39:56;25.40;99.90
12655;DHT22;6392;44.644;11.448;2023-07-30T04:42:23;25.40;99.90
12655;DHT22;6392;44.644;11.448;2023-07-30T04:44:50;25.30;99.90
12655;DHT22;6392;44.644;11.448;2023-07-30T04:47:17;25.30;99.90
12655;DHT22;6392;44.644;11.448;2023-07-30T04:49:45;25.30;99.90
12655;DHT22;6392;44.644;11.448;2023-07-30T04:52:12;25.30;99.90
12655;DHT22;6392;44.644;11.448;2023-07-30T04:54:39;25.30;99.90
12655;DHT22;6392;44.644;11.448;2023-07-30T04:57:07;25.20;99.90
12655;DHT22;6392;44.644;11.448;2023-07-30T04:59:34;25.20;99.90
12655;DHT22;6392;44.644;11.448;2023-07-30T05:02:01;25.20;99.90
12655;DHT22;6392;44.644;11.448;2023-07-30T05:04:28;25.20;99.90
12655;DHT22;6392;44.644;11.448;2023-07-30T05:06:56;25.20;99.90
12655;DHT22;6392;44.644;11.448;2023-07-30T05:09:23;25.20;99.90
12655;DHT22;6392;44.644;11.448;2023-07-30T05:11:50;25.20;99.90
12655;DHT22;6392;44.644;11.448;2023-07-30T05:14:17;25.20;99.90
12655;DHT22;6392;44.644;11.448;2023-07-30T05:16:44;25.30;99.90
12655;DHT22;6392;44.644;11.448;2023-07-30T05:19:11;25.30;99.90
12655;DHT22;6392;44.644;11.448;2023-07-30T05:21:38;25.30;99.90
12655;DHT22;6392;44.644;11.448;2023-07-30T05:24:07;25.30;99.90
12655;DHT22;6392;44.644;11.448;2023-07-30T05:26:34;25.30;99.90
12655;DHT22;6392;44.644;11.448;2023-07-30T05:29:01;25.30;99.90
12655;DHT22;6392;44.644;11.448;2023-07-30T05:31:28;25.30;99.90
12655;DHT22;6392;44.644;11.448;2023-07-30T05:33:56;25.30;99.90
12655;DHT22;6392;44.644;11.448;2023-07-30T05:36:23;25.30;99.90
12655;DHT22;6392;44.644;11.448;2023-07-30T05:38:50;25.40;99.90
12655;DHT22;6392;44.644;11.448;2023-07-30T05:41:18;25.40;99.90
12655;DHT22;6392;44.644;11.448;2023-07-30T05:43:46;25.40;99.90
12655;DHT22;6392;44.644;11.448;2023-07-30T05:46:14;25.50;99.90
12655;DHT22;6392;44.644;11.448;2023-07-30T05:48:41;25.50;99.90
12655;DHT22;6392;44.644;11.448;2023-07-30T05:51:08;25.50;99.90
12655;DHT22;6392;44.644;11.448;2023-07-30T05:53:35;25.50;99.90
12655;DHT22;6392;44.644;11.448;2023-07-30T05:56:02;25.60;99.90
12655;DHT22;6392;44.644;11.448;2023-07-30T05:58:30;25.60;99.90
12655;DHT22;6392;44.644;11.448;2023-07-30T06:00:57;25.70;99.90
12655;DHT22;6392;44.644;11.448;2023-07-30T06:03:24;25.70;99.90
12655;DHT22;6392;44.644;11.448;2023-07-30T06:05:51;25.80;99.90
12655;DHT22;6392;44.644;11.448;2023-07-30T06:08:18;25.80;99.90
12655;DHT22;6392;44.644;11.448;2023-07-30T06:10:45;25.90;99.90
12655;DHT22;6392;44.644;11.448;2023-07-30T06:13:12;25.90;99.90
12655;DHT22;6392;44.644;11.448;2023-07-30T06:15:41;25.90;99.90
12655;DHT22;6392;44.644;11.448;2023-07-30T06:18:08;25.90;99.90
12655;DHT22;6392;44.644;11.448;2023-07-30T06:20:35;25.90;99.90
12655;DHT22;6392;44.644;11.448;2023-07-30T06:23:02;25.90;99.90
12655;DHT22;6392;44.644;11.448;2023-07-30T06:25:30;25.90;99.90
12655;DHT22;6392;44.644;11.448;2023-07-30T06:27:57;25.90;99.90
12655;DHT22;6392;44.644;11.448;2023-07-30T06:30:25;25.90;99.90
12655;DHT22;6392;44.644;11.448;2023-07-30T06:32:53;25.90;99.90
12655;DHT22;6392;44.644;11.448;2023-07-30T06:35:20;25.90;99.90
12655;DHT22;6392;44.644;11.448;2023-07-30T06:37:47;25.90;99.90
12655;DHT22;6392;44.644;11.448;2023-07-30T06:40:14;26.00;99.90
12655;DHT22;6392;44.644;11.448;2023-07-30T06:42:41;26.10;99.90
12655;DHT22;6392;44.644;11.448;2023-07-30T06:45:09;26.10;99.90
12655;DHT22;6392;44.644;11.448;2023-07-30T06:47:36;26.10;99.90
12655;DHT22;6392;44.644;11.448;2023-07-30T06:50:06;26.10;99.90
12655;DHT22;6392;44.644;11.448;2023-07-30T06:52:34;26.20;99.90
12655;DHT22;6392;44.644;11.448;2023-07-30T06:55:02;26.20;99.90
12655;DHT22;6392;44.644;11.448;2023-07-30T06:57:29;26.30;99.90
12655;DHT22;6392;44.644;11.448;2023-07-30T06:59:56;26.30;99.90
12655;DHT22;6392;44.644;11.448;2023-07-30T07:02:23;26.40;99.90
12655;DHT22;6392;44.644;11.448;2023-07-30T07:04:50;26.40;99.90
12655;DHT22;6392;44.644;11.448;2023-07-30T07:07:19;26.40;99.90
12655;DHT22;6392;44.644;11.448;2023-07-30T07:09:46;26.50;99.90
12655;DHT22;6392;44.644;11.448;2023-07-30T07:12:13;26.50;99.90
12655;DHT22;6392;44.644;11.448;2023-07-30T07:14:40;26.60;99.90
12655;DHT22;6392;44.644;11.448;2023-07-30T07:17:08;26.60;99.90
12655;DHT22;6392;44.644;11.448;2023-07-30T07:19:35;26.60;99.90
12655;DHT22;6392;44.644;11.448;2023-07-30T07:22:03;26.60;99.90
12655;DHT22;6392;44.644;11.448;2023-07-30T07:24:31;26.60;99.90
12655;DHT22;6392;44.644;11.448;2023-07-30T07:26:58;26.60;99.90
12655;DHT22;6392;44.644;11.448;2023-07-30T07:29:25;26.70;99.90
12655;DHT22;6392;44.644;11.448;2023-07-30T07:31:52;26.80;99.90
12655;DHT22;6392;44.644;11.448;2023-07-30T07:34:20;26.90;99.90
12655;DHT22;6392;44.644;11.448;2023-07-30T07:36:47;26.90;99.90
12655;DHT22;6392;44.644;11.448;2023-07-30T07:39:14;27.00;99.90
12655;DHT22;6392;44.644;11.448;2023-07-30T07:41:42;27.00;99.90
12655;DHT22;6392;44.644;11.448;2023-07-30T07:44:09;27.00;99.90
12655;DHT22;6392;44.644;11.448;2023-07-30T07:46:36;27.00;99.90
12655;DHT22;6392;44.644;11.448;2023-07-30T07:49:03;27.00;99.90
12655;DHT22;6392;44.644;11.448;2023-07-30T07:51:30;27.10;99.90
12655;DHT22;6392;44.644;11.448;2023-07-30T07:53:57;27.10;99.90
12655;DHT22;6392;44.644;11.448;2023-07-30T07:56:24;27.10;99.90
12655;DHT22;6392;44.644;11.448;2023-07-30T07:58:52;27.10;99.90
12655;DHT22;6392;44.644;11.448;2023-07-30T08:01:19;27.20;99.90
12655;DHT22;6392;44.644;11.448;2023-07-30T08:03:46;27.20;99.90
12655;DHT22;6392;44.644;11.448;2023-07-30T08:06:13;27.30;99.90
12655;DHT22;6392;44.644;11.448;2023-07-30T08:08:40;27.30;99.90
12655;DHT22;6392;44.644;11.448;2023-07-30T08:11:08;27.30;99.90
12655;DHT22;6392;44.644;11.448;2023-07-30T08:13:35;27.30;99.90
12655;DHT22;6392;44.644;11.448;2023-07-30T08:16:03;27.40;99.90
12655;DHT22;6392;44.644;11.448;2023-07-30T08:18:31;27.50;99.90
12655;DHT22;6392;44.644;11.448;2023-07-30T08:20:58;27.50;99.90
12655;DHT22;6392;44.644;11.448;2023-07-30T08:23:24;27.60;99.90
12655;DHT22;6392;44.644;11.448;2023-07-30T08:25:52;27.60;99.90
12655;DHT22;6392;44.644;11.448;2023-07-30T08:28:19;27.60;99.90
12655;DHT22;6392;44.644;11.448;2023-07-30T08:30:46;27.60;99.90
12655;DHT22;6392;44.644;11.448;2023-07-30T08:33:14;27.60;99.90
12655;DHT22;6392;44.644;11.448;2023-07-30T08:35:41;27.60;99.90
12655;DHT22;6392;44.644;11.448;2023-07-30T08:38:08;27.60;99.90
12655;DHT22;6392;44.644;11.448;2023-07-30T08:40:35;27.60;99.90
12655;DHT22;6392;44.644;11.448;2023-07-30T08:43:03;27.70;99.90
12655;DHT22;6392;44.644;11.448;2023-07-30T08:45:30;27.80;99.90
12655;DHT22;6392;44.644;11.448;2023-07-30T08:47:57;27.90;99.90
12655;DHT22;6392;44.644;11.448;2023-07-30T08:50:28;27.90;99.90
12655;DHT22;6392;44.644;11.448;2023-07-30T08:52:55;28.00;99.90
12655;DHT22;6392;44.644;11.448;2023-07-30T08:55:24;28.00;99.90
12655;DHT22;6392;44.644;11.448;2023-07-30T08:57:53;28.00;99.90
12655;DHT22;6392;44.644;11.448;2023-07-30T09:00:22;28.00;99.90
12655;DHT22;6392;44.644;11.448;2023-07-30T09:02:52;28.00;99.90
12655;DHT22;6392;44.644;11.448;2023-07-30T09:05:20;28.00;99.90
12655;DHT22;6392;44.644;11.448;2023-07-30T09:07:49;28.10;99.90
12655;DHT22;6392;44.644;11.448;2023-07-30T09:10:16;28.10;99.90
12655;DHT22;6392;44.644;11.448;2023-07-30T09:12:43;28.10;99.90
12655;DHT22;6392;44.644;11.448;2023-07-30T09:15:10;28.20;99.90
12655;DHT22;6392;44.644;11.448;2023-07-30T09:17:38;28.20;99.90
12655;DHT22;6392;44.644;11.448;2023-07-30T09:20:06;28.30;99.90
12655;DHT22;6392;44.644;11.448;2023-07-30T09:22:34;28.30;99.90
12655;DHT22;6392;44.644;11.448;2023-07-30T09:25:07;28.30;99.90
12655;DHT22;6392;44.644;11.448;2023-07-30T09:27:35;28.40;99.90
12655;DHT22;6392;44.644;11.448;2023-07-30T09:30:03;28.30;99.90
12655;DHT22;6392;44.644;11.448;2023-07-30T09:32:32;28.40;99.90
12655;DHT22;6392;44.644;11.448;2023-07-30T09:35:04;28.40;99.90
12655;DHT22;6392;44.644;11.448;2023-07-30T09:37:33;28.40;99.90
12655;DHT22;6392;44.644;11.448;2023-07-30T09:40:03;28.40;99.90
12655;DHT22;6392;44.644;11.448;2023-07-30T09:42:32;28.40;99.90
12655;DHT22;6392;44.644;11.448;2023-07-30T09:45:01;28.40;99.90
12655;DHT22;6392;44.644;11.448;2023-07-30T09:47:30;28.40;99.90
12655;DHT22;6392;44.644;11.448;2023-07-30T09:49:57;28.50;99.90
12655;DHT22;6392;44.644;11.448;2023-07-30T09:52:24;28.50;99.90
12655;DHT22;6392;44.644;11.448;2023-07-30T09:54:52;28.50;99.90
12655;DHT22;6392;44.644;11.448;2023-07-30T09:57:19;28.60;99.90
12655;DHT22;6392;44.644;11.448;2023-07-30T09:59:47;28.70;99.90
12655;DHT22;6392;44.644;11.448;2023-07-30T10:02:16;28.70;99.90
12655;DHT22;6392;44.644;11.448;2023-07-30T10:04:49;28.70;99.90
12655;DHT22;6392;44.644;11.448;2023-07-30T10:07:19;28.70;99.90
12655;DHT22;6392;44.644;11.448;2023-07-30T10:09:48;28.80;99.90
12655;DHT22;6392;44.644;11.448;2023-07-30T10:12:20;28.80;99.90
12655;DHT22;6392;44.644;11.448;2023-07-30T10:14:50;28.90;99.90
12655;DHT22;6392;44.644;11.448;2023-07-30T10:17:17;28.90;99.90
12655;DHT22;6392;44.644;11.448;2023-07-30T10:19:47;28.80;99.90
12655;DHT22;6392;44.644;11.448;2023-07-30T10:22:23;28.80;99.90
12655;DHT22;6392;44.644;11.448;2023-07-30T10:24:57;28.70;99.90
12655;DHT22;6392;44.644;11.448;2023-07-30T10:27:26;28.70;99.90
12655;DHT22;6392;44.644;11.448;2023-07-30T10:30:10;28.70;99.90
12655;DHT22;6392;44.644;11.448;2023-07-30T10:32:38;28.80;99.90
12655;DHT22;6392;44.644;11.448;2023-07-30T10:35:06;28.90;99.90
12655;DHT22;6392;44.644;11.448;2023-07-30T10:37:33;29.00;99.90
12655;DHT22;6392;44.644;11.448;2023-07-30T10:40:00;29.10;99.90
12655;DHT22;6392;44.644;11.448;2023-07-30T10:42:33;29.10;99.90
12655;DHT22;6392;44.644;11.448;2023-07-30T10:45:00;29.10;99.90
12655;DHT22;6392;44.644;11.448;2023-07-30T10:47:29;29.10;99.90
12655;DHT22;6392;44.644;11.448;2023-07-30T10:50:01;29.20;99.90
12655;DHT22;6392;44.644;11.448;2023-07-30T10:52:28;29.20;99.90
12655;DHT22;6392;44.644;11.448;2023-07-30T10:55:00;29.30;99.90
12655;DHT22;6392;44.644;11.448;2023-07-30T10:57:30;29.30;99.90
12655;DHT22;6392;44.644;11.448;2023-07-30T10:59:59;29.40;99.90
12655;DHT22;6392;44.644;11.448;2023-07-30T11:02:29;29.40;99.90
12655;DHT22;6392;44.644;11.448;2023-07-30T11:04:56;29.50;99.90
12655;DHT22;6392;44.644;11.448;2023-07-30T11:07:23;29.50;99.90
12655;DHT22;6392;44.644;11.448;2023-07-30T11:09:59;29.60;99.90
12655;DHT22;6392;44.644;11.448;2023-07-30T11:12:27;29.60;99.90
12655;DHT22;6392;44.644;11.448;2023-07-30T11:15:01;29.60;99.90
12655;DHT22;6392;44.644;11.448;2023-07-30T11:17:29;29.60;99.90
12655;DHT22;6392;44.644;11.448;2023-07-30T11:19:56;29.70;99.90
12655;DHT22;6392;44.644;11.448;2023-07-30T11:22:30;29.70;99.90
12655;DHT22;6392;44.644;11.448;2023-07-30T11:24:57;29.70;99.90
12655;DHT22;6392;44.644;11.448;2023-07-30T11:27:27;29.70;99.90
12655;DHT22;6392;44.644;11.448;2023-07-30T11:29:54;29.80;99.90
12655;DHT22;6392;44.644;11.448;2023-07-30T11:32:22;29.90;99.90
12655;DHT22;6392;44.644;11.448;2023-07-30T11:34:52;29.90;99.90
12655;DHT22;6392;44.644;11.448;2023-07-30T11:37:20;29.90;99.90
12655;DHT22;6392;44.644;11.448;2023-07-30T11:39:48;29.90;99.90
12655;DHT22;6392;44.644;11.448;2023-07-30T11:42:15;29.90;99.90
12655;DHT22;6392;44.644;11.448;2023-07-30T11:44:42;29.90;99.90
12655;DHT22;6392;44.644;11.448;2023-07-30T11:47:09;29.90;99.90
12655;DHT22;6392;44.644;11.448;2023-07-30T11:49:36;29.80;99.90
12655;DHT22;6392;44.644;11.448;2023-07-30T11:52:06;29.90;99.90
12655;DHT22;6392;44.644;11.448;2023-07-30T11:54:33;29.90;99.90
12655;DHT22;6392;44.644;11.448;2023-07-30T11:57:00;29.90;99.90
12655;DHT22;6392;44.644;11.448;2023-07-30T11:59:27;30.00;99.90
12655;DHT22;6392;44.644;11.448;2023-07-30T12:01:54;30.00;99.90
12655;DHT22;6392;44.644;11.448;2023-07-30T12:04:21;30.00;99.90
12655;DHT22;6392;44.644;11.448;2023-07-30T12:06:51;30.00;99.90
12655;DHT22;6392;44.644;11.448;2023-07-30T12:09:21;30.10;99.90
12655;DHT22;6392;44.644;11.448;2023-07-30T12:11:50;30.10;99.90
12655;DHT22;6392;44.644;11.448;2023-07-30T12:14:18;30.20;99.90
12655;DHT22;6392;44.644;11.448;2023-07-30T12:16:46;30.30;99.90
12655;DHT22;6392;44.644;11.448;2023-07-30T12:19:13;30.40;99.90
12655;DHT22;6392;44.644;11.448;2023-07-30T12:21:40;30.50;99.90
12655;DHT22;6392;44.644;11.448;2023-07-30T12:24:07;30.80;99.90
12655;DHT22;6392;44.644;11.448;2023-07-30T12:26:35;31.00;99.90
12655;DHT22;6392;44.644;11.448;2023-07-30T12:29:02;31.20;99.90
12655;DHT22;6392;44.644;11.448;2023-07-30T12:31:29;31.50;99.90
12655;DHT22;6392;44.644;11.448;2023-07-30T12:33:56;31.70;99.90
12655;DHT22;6392;44.644;11.448;2023-07-30T12:36:23;31.70;99.90
12655;DHT22;6392;44.644;11.448;2023-07-30T12:38:50;31.90;99.90
12655;DHT22;6392;44.644;11.448;2023-07-30T12:41:19;32.10;99.90
12655;DHT22;6392;44.644;11.448;2023-07-30T12:43:52;32.30;99.90
12655;DHT22;6392;44.644;11.448;2023-07-30T12:46:19;32.30;99.90
12655;DHT22;6392;44.644;11.448;2023-07-30T12:48:47;32.40;99.90
12655;DHT22;6392;44.644;11.448;2023-07-30T12:51:14;32.40;99.90
12655;DHT22;6392;44.644;11.448;2023-07-30T12:53:41;32.40;99.90
12655;DHT22;6392;44.644;11.448;2023-07-30T12:56:08;32.30;99.90
12655;DHT22;6392;44.644;11.448;2023-07-30T12:58:35;32.10;99.90
12655;DHT22;6392;44.644;11.448;2023-07-30T13:01:03;32.00;99.90
12655;DHT22;6392;44.644;11.448;2023-07-30T13:03:31;31.80;99.90
12655;DHT22;6392;44.644;11.448;2023-07-30T13:05:58;31.80;99.90
12655;DHT22;6392;44.644;11.448;2023-07-30T13:08:25;32.00;99.90
12655;DHT22;6392;44.644;11.448;2023-07-30T13:10:52;32.30;99.90
12655;DHT22;6392;44.644;11.448;2023-07-30T13:13:20;32.60;99.90
12655;DHT22;6392;44.644;11.448;2023-07-30T13:15:48;32.80;99.90
12655;DHT22;6392;44.644;11.448;2023-07-30T13:18:17;33.20;99.90
12655;DHT22;6392;44.644;11.448;2023-07-30T13:20:44;33.30;99.90
12655;DHT22;6392;44.644;11.448;2023-07-30T13:23:11;33.10;99.90
12655;DHT22;6392;44.644;11.448;2023-07-30T13:25:38;32.90;99.90
12655;DHT22;6392;44.644;11.448;2023-07-30T13:28:05;33.00;99.90
12655;DHT22;6392;44.644;11.448;2023-07-30T13:30:32;33.10;99.90
12655;DHT22;6392;44.644;11.448;2023-07-30T13:32:59;33.30;99.90
12655;DHT22;6392;44.644;11.448;2023-07-30T13:35:27;33.70;99.90
12655;DHT22;6392;44.644;11.448;2023-07-30T13:37:54;34.10;99.90
12655;DHT22;6392;44.644;11.448;2023-07-30T13:40:21;34.00;99.90
12655;DHT22;6392;44.644;11.448;2023-07-30T13:42:49;33.90;99.90
12655;DHT22;6392;44.644;11.448;2023-07-30T13:45:16;34.10;99.90
12655;DHT22;6392;44.644;11.448;2023-07-30T13:47:43;34.30;99.90
12655;DHT22;6392;44.644;11.448;2023-07-30T13:50:10;34.50;99.90
12655;DHT22;6392;44.644;11.448;2023-07-30T13:52:38;34.60;99.90
12655;DHT22;6392;44.644;11.448;2023-07-30T13:55:06;34.90;99.90
12655;DHT22;6392;44.644;11.448;2023-07-30T13:57:33;35.10;99.90
12655;DHT22;6392;44.644;11.448;2023-07-30T14:00:00;35.10;99.90
12655;DHT22;6392;44.644;11.448;2023-07-30T14:02:27;35.10;99.90
12655;DHT22;6392;44.644;11.448;2023-07-30T14:04:54;35.30;99.90
12655;DHT22;6392;44.644;11.448;2023-07-30T14:07:21;35.20;99.90
12655;DHT22;6392;44.644;11.448;2023-07-30T14:09:50;34.90;99.90
12655;DHT22;6392;44.644;11.448;2023-07-30T14:12:17;34.70;99.90
12655;DHT22;6392;44.644;11.448;2023-07-30T14:14:44;34.50;99.90
12655;DHT22;6392;44.644;11.448;2023-07-30T14:17:11;34.80;99.90
12655;DHT22;6392;44.644;11.448;2023-07-30T14:19:38;35.10;99.90
12655;DHT22;6392;44.644;11.448;2023-07-30T14:22:05;34.90;99.90
12655;DHT22;6392;44.644;11.448;2023-07-30T14:24:32;34.70;99.90
12655;DHT22;6392;44.644;11.448;2023-07-30T14:27:01;34.60;99.90
12655;DHT22;6392;44.644;11.448;2023-07-30T14:29:28;34.70;99.90
12655;DHT22;6392;44.644;11.448;2023-07-30T14:31:55;34.70;99.90
12655;DHT22;6392;44.644;11.448;2023-07-30T14:34:22;34.60;99.90
12655;DHT22;6392;44.644;11.448;2023-07-30T14:36:49;34.50;99.90
12655;DHT22;6392;44.644;11.448;2023-07-30T14:39:16;34.50;99.90
12655;DHT22;6392;44.644;11.448;2023-07-30T14:41:43;34.80;99.90
12655;DHT22;6392;44.644;11.448;2023-07-30T14:44:11;35.30;99.90
12655;DHT22;6392;44.644;11.448;2023-07-30T14:46:38;35.80;99.90
12655;DHT22;6392;44.644;11.448;2023-07-30T14:49:05;35.90;99.90
12655;DHT22;6392;44.644;11.448;2023-07-30T14:51:32;35.70;99.90
12655;DHT22;6392;44.644;11.448;2023-07-30T14:53:59;35.30;99.90
12655;DHT22;6392;44.644;11.448;2023-07-30T14:56:26;35.00;99.90
12655;DHT22;6392;44.644;11.448;2023-07-30T14:58:53;34.80;99.90
12655;DHT22;6392;44.644;11.448;2023-07-30T15:01:26;34.70;99.90
12655;DHT22;6392;44.644;11.448;2023-07-30T15:03:54;34.70;99.90
12655;DHT22;6392;44.644;11.448;2023-07-30T15:06:21;34.70;99.90
12655;DHT22;6392;44.644;11.448;2023-07-30T15:08:48;34.70;99.90
12655;DHT22;6392;44.644;11.448;2023-07-30T15:11:15;35.10;99.90
12655;DHT22;6392;44.644;11.448;2023-07-30T15:13:42;35.40;99.90
12655;DHT22;6392;44.644;11.448;2023-07-30T15:16:09;35.30;99.90
12655;DHT22;6392;44.644;11.448;2023-07-30T15:18:37;35.50;99.90
12655;DHT22;6392;44.644;11.448;2023-07-30T15:21:04;35.70;99.90
12655;DHT22;6392;44.644;11.448;2023-07-30T15:23:31;35.80;99.90
12655;DHT22;6392;44.644;11.448;2023-07-30T15:25:58;35.80;99.90
12655;DHT22;6392;44.644;11.448;2023-07-30T15:28:25;35.70;99.90
12655;DHT22;6392;44.644;11.448;2023-07-30T15:30:52;35.50;99.90
12655;DHT22;6392;44.644;11.448;2023-07-30T15:33:19;36.10;99.90